sensor_id;sensor_type;location;lat;lon;timestamp;P1;durP1;ratioP1;P2;durP2;ratioP2
76582;SDS011;65462;52.148;7.940;2023-06-14T00:00:02;2.63;;;1.70;;
76582;SDS011;65462;52.148;7.940;2023-06-14T00:02:29;2.55;;;1.50;;
76582;SDS011;65462;52.148;7.940;2023-06-14T00:04:54;3.72;;;1.70;;
76582;SDS011;65462;52.148;7.940;2023-06-14T00:07:21;3.83;;;1.40;;
76582;SDS011;65462;52.148;7.940;2023-06-14T00:09:58;5.90;;;1.63;;
76582;SDS011;65462;52.148;7.940;2023-06-14T00:12:23;2.65;;;1.58;;
76582;SDS011;65462;52.148;7.940;2023-06-14T00:14:49;1.85;;;1.58;;
76582;SDS011;65462;52.148;7.940;2023-06-14T00:17:14;2.38;;;1.60;;
76582;SDS011;65462;52.148;7.940;2023-06-14T00:19:41;3.95;;;1.98;;
76582;SDS011;65462;52.148;7.940;2023-06-14T00:22:07;3.38;;;1.60;;
76582;SDS011;65462;52.148;7.940;2023-06-14T00:24:32;3.50;;;1.80;;
76582;SDS011;65462;52.148;7.940;2023-06-14T00:26:57;3.65;;;2.05;;
76582;SDS011;65462;52.148;7.940;2023-06-14T00:29:23;5.05;;;2.03;;
76582;SDS011;65462;52.148;7.940;2023-06-14T00:31:48;4.55;;;1.80;;
76582;SDS011;65462;52.148;7.940;2023-06-14T00:34:13;3.08;;;1.50;;
76582;SDS011;65462;52.148;7.940;2023-06-14T00:36:38;3.20;;;1.63;;
76582;SDS011;65462;52.148;7.940;2023-06-14T00:39:04;3.53;;;1.95;;
76582;SDS011;65462;52.148;7.940;2023-06-14T00:41:29;3.33;;;1.98;;
76582;SDS011;65462;52.148;7.940;2023-06-14T00:43:54;3.05;;;1.60;;
76582;SDS011;65462;52.148;7.940;2023-06-14T00:46:21;3.15;;;1.92;;
76582;SDS011;65462;52.148;7.940;2023-06-14T00:48:47;3.40;;;1.50;;
76582;SDS011;65462;52.148;7.940;2023-06-14T00:51:13;3.13;;;1.95;;
76582;SDS011;65462;52.148;7.940;2023-06-14T00:53:39;2.45;;;1.60;;
76582;SDS011;65462;52.148;7.940;2023-06-14T00:56:05;3.47;;;1.95;;
76582;SDS011;65462;52.148;7.940;2023-06-14T00:58:31;3.33;;;1.90;;
76582;SDS011;65462;52.148;7.940;2023-06-14T01:00:57;3.55;;;1.77;;
76582;SDS011;65462;52.148;7.940;2023-06-14T01:03:23;3.05;;;1.70;;
76582;SDS011;65462;52.148;7.940;2023-06-14T01:05:50;2.20;;;1.70;;
76582;SDS011;65462;52.148;7.940;2023-06-14T01:08:29;3.25;;;1.50;;
76582;SDS011;65462;52.148;7.940;2023-06-14T01:11:05;3.70;;;1.70;;
76582;SDS011;65462;52.148;7.940;2023-06-14T01:13:36;2.97;;;1.90;;
76582;SDS011;65462;52.148;7.940;2023-06-14T01:16:04;2.53;;;1.70;;
76582;SDS011;65462;52.148;7.940;2023-06-14T01:18:30;3.35;;;1.70;;
76582;SDS011;65462;52.148;7.940;2023-06-14T01:20:57;2.28;;;1.63;;
76582;SDS011;65462;52.148;7.940;2023-06-14T01:23:23;4.03;;;1.65;;
76582;SDS011;65462;52.148;7.940;2023-06-14T01:25:49;4.18;;;1.88;;
76582;SDS011;65462;52.148;7.940;2023-06-14T01:28:17;3.08;;;2.00;;
76582;SDS011;65462;52.148;7.940;2023-06-14T01:30:49;5.35;;;1.80;;
76582;SDS011;65462;52.148;7.940;2023-06-14T01:33:19;5.10;;;2.03;;
76582;SDS011;65462;52.148;7.940;2023-06-14T01:35:47;4.53;;;1.80;;
76582;SDS011;65462;52.148;7.940;2023-06-14T01:38:14;4.05;;;1.80;;
76582;SDS011;65462;52.148;7.940;2023-06-14T01:40:40;3.97;;;1.70;;
76582;SDS011;65462;52.148;7.940;2023-06-14T01:43:07;2.55;;;1.52;;
76582;SDS011;65462;52.148;7.940;2023-06-14T01:45:32;3.38;;;1.60;;
76582;SDS011;65462;52.148;7.940;2023-06-14T01:47:59;3.00;;;1.80;;
76582;SDS011;65462;52.148;7.940;2023-06-14T01:50:27;4.97;;;1.70;;
76582;SDS011;65462;52.148;7.940;2023-06-14T01:52:54;2.97;;;1.60;;
76582;SDS011;65462;52.148;7.940;2023-06-14T01:55:20;3.30;;;1.73;;
76582;SDS011;65462;52.148;7.940;2023-06-14T01:57:46;2.67;;;1.65;;
76582;SDS011;65462;52.148;7.940;2023-06-14T02:00:12;3.20;;;1.73;;
76582;SDS011;65462;52.148;7.940;2023-06-14T02:02:39;3.17;;;2.00;;
76582;SDS011;65462;52.148;7.940;2023-06-14T02:05:05;2.75;;;1.67;;
76582;SDS011;65462;52.148;7.940;2023-06-14T02:07:30;2.67;;;1.70;;
76582;SDS011;65462;52.148;7.940;2023-06-14T02:09:55;3.28;;;2.00;;
76582;SDS011;65462;52.148;7.940;2023-06-14T02:12:21;3.30;;;1.70;;
76582;SDS011;65462;52.148;7.940;2023-06-14T02:14:46;3.15;;;1.80;;
76582;SDS011;65462;52.148;7.940;2023-06-14T02:17:11;4.20;;;1.50;;
76582;SDS011;65462;52.148;7.940;2023-06-14T02:19:36;4.20;;;2.10;;
76582;SDS011;65462;52.148;7.940;2023-06-14T02:22:02;2.30;;;1.73;;
76582;SDS011;65462;52.148;7.940;2023-06-14T02:24:27;2.55;;;1.60;;
76582;SDS011;65462;52.148;7.940;2023-06-14T02:26:52;3.10;;;1.80;;
76582;SDS011;65462;52.148;7.940;2023-06-14T02:29:18;3.38;;;1.73;;
76582;SDS011;65462;52.148;7.940;2023-06-14T02:31:43;3.38;;;1.63;;
76582;SDS011;65462;52.148;7.940;2023-06-14T02:34:09;3.47;;;1.90;;
76582;SDS011;65462;52.148;7.940;2023-06-14T02:36:35;5.45;;;1.95;;
76582;SDS011;65462;52.148;7.940;2023-06-14T02:39:06;4.80;;;1.70;;
76582;SDS011;65462;52.148;7.940;2023-06-14T02:41:35;3.33;;;1.80;;
76582;SDS011;65462;52.148;7.940;2023-06-14T02:44:00;2.53;;;1.77;;
76582;SDS011;65462;52.148;7.940;2023-06-14T02:46:26;2.78;;;1.92;;
76582;SDS011;65462;52.148;7.940;2023-06-14T02:48:51;4.93;;;2.00;;
76582;SDS011;65462;52.148;7.940;2023-06-14T02:51:16;2.47;;;1.55;;
76582;SDS011;65462;52.148;7.940;2023-06-14T02:53:42;3.45;;;1.67;;
76582;SDS011;65462;52.148;7.940;2023-06-14T02:56:08;3.03;;;1.73;;
76582;SDS011;65462;52.148;7.940;2023-06-14T02:58:34;3.65;;;1.60;;
76582;SDS011;65462;52.148;7.940;2023-06-14T03:01:01;2.58;;;1.77;;
76582;SDS011;65462;52.148;7.940;2023-06-14T03:03:28;3.13;;;1.80;;
76582;SDS011;65462;52.148;7.940;2023-06-14T03:05:54;3.80;;;1.75;;
76582;SDS011;65462;52.148;7.940;2023-06-14T03:08:21;3.97;;;2.10;;
76582;SDS011;65462;52.148;7.940;2023-06-14T03:10:52;3.42;;;1.65;;
76582;SDS011;65462;52.148;7.940;2023-06-14T03:13:18;2.80;;;1.60;;
76582;SDS011;65462;52.148;7.940;2023-06-14T03:15:45;2.90;;;1.60;;
76582;SDS011;65462;52.148;7.940;2023-06-14T03:18:11;2.17;;;1.65;;
76582;SDS011;65462;52.148;7.940;2023-06-14T03:20:40;2.90;;;1.90;;
76582;SDS011;65462;52.148;7.940;2023-06-14T03:23:06;2.78;;;1.60;;
76582;SDS011;65462;52.148;7.940;2023-06-14T03:25:31;2.50;;;1.75;;
76582;SDS011;65462;52.148;7.940;2023-06-14T03:28:00;3.05;;;1.83;;
76582;SDS011;65462;52.148;7.940;2023-06-14T03:30:26;4.05;;;1.77;;
76582;SDS011;65462;52.148;7.940;2023-06-14T03:32:51;2.65;;;1.70;;
76582;SDS011;65462;52.148;7.940;2023-06-14T03:35:20;2.47;;;1.55;;
76582;SDS011;65462;52.148;7.940;2023-06-14T03:37:46;2.80;;;2.03;;
76582;SDS011;65462;52.148;7.940;2023-06-14T03:40:12;4.43;;;1.75;;
76582;SDS011;65462;52.148;7.940;2023-06-14T03:42:39;3.80;;;1.90;;
76582;SDS011;65462;52.148;7.940;2023-06-14T03:45:05;3.75;;;1.95;;
76582;SDS011;65462;52.148;7.940;2023-06-14T03:47:32;2.78;;;1.65;;
76582;SDS011;65462;52.148;7.940;2023-06-14T03:49:59;3.25;;;1.80;;
76582;SDS011;65462;52.148;7.940;2023-06-14T03:52:26;3.17;;;2.15;;
76582;SDS011;65462;52.148;7.940;2023-06-14T03:54:51;3.40;;;2.10;;
76582;SDS011;65462;52.148;7.940;2023-06-14T03:57:17;2.85;;;1.67;;
76582;SDS011;65462;52.148;7.940;2023-06-14T03:59:42;2.55;;;1.48;;
76582;SDS011;65462;52.148;7.940;2023-06-14T04:02:08;2.95;;;1.80;;
76582;SDS011;65462;52.148;7.940;2023-06-14T04:04:34;3.17;;;2.00;;
76582;SDS011;65462;52.148;7.940;2023-06-14T04:07:00;2.70;;;1.65;;
76582;SDS011;65462;52.148;7.940;2023-06-14T04:09:28;2.40;;;1.67;;
76582;SDS011;65462;52.148;7.940;2023-06-14T04:11:54;5.88;;;1.60;;
76582;SDS011;65462;52.148;7.940;2023-06-14T04:14:20;2.60;;;1.58;;
76582;SDS011;65462;52.148;7.940;2023-06-14T04:16:46;2.78;;;1.58;;
76582;SDS011;65462;52.148;7.940;2023-06-14T04:19:13;2.47;;;1.40;;
76582;SDS011;65462;52.148;7.940;2023-06-14T04:21:38;1.98;;;1.35;;
76582;SDS011;65462;52.148;7.940;2023-06-14T04:24:03;3.17;;;1.42;;
76582;SDS011;65462;52.148;7.940;2023-06-14T04:26:29;2.25;;;1.23;;
76582;SDS011;65462;52.148;7.940;2023-06-14T04:28:55;2.80;;;1.50;;
76582;SDS011;65462;52.148;7.940;2023-06-14T04:31:22;3.20;;;1.60;;
76582;SDS011;65462;52.148;7.940;2023-06-14T04:33:50;3.00;;;1.27;;
76582;SDS011;65462;52.148;7.940;2023-06-14T04:36:18;3.40;;;1.35;;
76582;SDS011;65462;52.148;7.940;2023-06-14T04:38:43;2.15;;;1.20;;
76582;SDS011;65462;52.148;7.940;2023-06-14T04:41:10;4.72;;;1.63;;
76582;SDS011;65462;52.148;7.940;2023-06-14T04:43:36;2.15;;;1.30;;
76582;SDS011;65462;52.148;7.940;2023-06-14T04:46:03;2.83;;;1.40;;
76582;SDS011;65462;52.148;7.940;2023-06-14T04:48:35;2.30;;;1.33;;
76582;SDS011;65462;52.148;7.940;2023-06-14T04:51:00;3.88;;;1.20;;
76582;SDS011;65462;52.148;7.940;2023-06-14T04:53:25;3.50;;;1.42;;
76582;SDS011;65462;52.148;7.940;2023-06-14T04:55:53;1.70;;;1.30;;
76582;SDS011;65462;52.148;7.940;2023-06-14T04:58:19;1.85;;;1.20;;
76582;SDS011;65462;52.148;7.940;2023-06-14T05:00:45;2.00;;;1.20;;
76582;SDS011;65462;52.148;7.940;2023-06-14T05:03:10;4.32;;;1.50;;
76582;SDS011;65462;52.148;7.940;2023-06-14T05:05:38;1.88;;;1.20;;
76582;SDS011;65462;52.148;7.940;2023-06-14T05:08:04;2.50;;;1.38;;
76582;SDS011;65462;52.148;7.940;2023-06-14T05:10:30;2.00;;;1.17;;
76582;SDS011;65462;52.148;7.940;2023-06-14T05:12:55;2.05;;;1.30;;
76582;SDS011;65462;52.148;7.940;2023-06-14T05:15:21;1.58;;;1.13;;
76582;SDS011;65462;52.148;7.940;2023-06-14T05:17:50;2.20;;;1.48;;
76582;SDS011;65462;52.148;7.940;2023-06-14T05:20:20;2.83;;;1.40;;
76582;SDS011;65462;52.148;7.940;2023-06-14T05:22:45;1.80;;;1.30;;
76582;SDS011;65462;52.148;7.940;2023-06-14T05:25:10;3.50;;;1.40;;
76582;SDS011;65462;52.148;7.940;2023-06-14T05:27:36;3.88;;;1.42;;
76582;SDS011;65462;52.148;7.940;2023-06-14T05:30:02;2.38;;;1.40;;
76582;SDS011;65462;52.148;7.940;2023-06-14T05:32:28;2.47;;;1.42;;
76582;SDS011;65462;52.148;7.940;2023-06-14T05:34:54;2.40;;;1.40;;
76582;SDS011;65462;52.148;7.940;2023-06-14T05:37:19;2.47;;;1.52;;
76582;SDS011;65462;52.148;7.940;2023-06-14T05:39:44;2.63;;;1.58;;
76582;SDS011;65462;52.148;7.940;2023-06-14T05:42:10;1.95;;;1.58;;
76582;SDS011;65462;52.148;7.940;2023-06-14T05:44:35;2.22;;;1.50;;
76582;SDS011;65462;52.148;7.940;2023-06-14T05:47:01;3.17;;;1.55;;
76582;SDS011;65462;52.148;7.940;2023-06-14T05:49:27;3.58;;;1.60;;
76582;SDS011;65462;52.148;7.940;2023-06-14T05:51:52;3.22;;;1.50;;
76582;SDS011;65462;52.148;7.940;2023-06-14T05:54:17;2.58;;;1.45;;
76582;SDS011;65462;52.148;7.940;2023-06-14T05:56:42;2.70;;;1.30;;
76582;SDS011;65462;52.148;7.940;2023-06-14T05:59:08;2.45;;;1.60;;
76582;SDS011;65462;52.148;7.940;2023-06-14T06:01:33;3.72;;;1.65;;
76582;SDS011;65462;52.148;7.940;2023-06-14T06:04:01;1.90;;;1.50;;
76582;SDS011;65462;52.148;7.940;2023-06-14T06:06:27;2.40;;;1.30;;
76582;SDS011;65462;52.148;7.940;2023-06-14T06:08:52;2.63;;;1.40;;
76582;SDS011;65462;52.148;7.940;2023-06-14T06:11:17;2.15;;;1.20;;
76582;SDS011;65462;52.148;7.940;2023-06-14T06:13:42;3.10;;;1.40;;
76582;SDS011;65462;52.148;7.940;2023-06-14T06:16:08;4.00;;;1.52;;
76582;SDS011;65462;52.148;7.940;2023-06-14T06:18:33;1.50;;;1.17;;
76582;SDS011;65462;52.148;7.940;2023-06-14T06:20:59;3.45;;;1.40;;
76582;SDS011;65462;52.148;7.940;2023-06-14T06:23:24;1.40;;;1.00;;
76582;SDS011;65462;52.148;7.940;2023-06-14T06:25:50;2.00;;;1.38;;
76582;SDS011;65462;52.148;7.940;2023-06-14T06:28:15;2.45;;;1.35;;
76582;SDS011;65462;52.148;7.940;2023-06-14T06:30:40;3.20;;;1.67;;
76582;SDS011;65462;52.148;7.940;2023-06-14T06:33:06;3.55;;;1.52;;
76582;SDS011;65462;52.148;7.940;2023-06-14T06:35:31;1.73;;;1.30;;
76582;SDS011;65462;52.148;7.940;2023-06-14T06:37:58;3.28;;;1.30;;
76582;SDS011;65462;52.148;7.940;2023-06-14T06:40:23;3.22;;;1.50;;
76582;SDS011;65462;52.148;7.940;2023-06-14T06:42:48;3.75;;;1.40;;
76582;SDS011;65462;52.148;7.940;2023-06-14T06:45:15;1.83;;;1.08;;
76582;SDS011;65462;52.148;7.940;2023-06-14T06:47:40;1.85;;;1.20;;
76582;SDS011;65462;52.148;7.940;2023-06-14T06:50:05;5.43;;;1.30;;
76582;SDS011;65462;52.148;7.940;2023-06-14T06:52:32;1.90;;;1.20;;
76582;SDS011;65462;52.148;7.940;2023-06-14T06:54:57;1.80;;;1.58;;
76582;SDS011;65462;52.148;7.940;2023-06-14T06:57:23;2.35;;;1.40;;
76582;SDS011;65462;52.148;7.940;2023-06-14T06:59:48;1.88;;;1.17;;
76582;SDS011;65462;52.148;7.940;2023-06-14T07:02:14;1.35;;;1.05;;
76582;SDS011;65462;52.148;7.940;2023-06-14T07:04:40;2.05;;;1.13;;
76582;SDS011;65462;52.148;7.940;2023-06-14T07:07:06;2.45;;;1.20;;
76582;SDS011;65462;52.148;7.940;2023-06-14T07:09:31;2.50;;;0.98;;
76582;SDS011;65462;52.148;7.940;2023-06-14T07:11:56;1.58;;;1.05;;
76582;SDS011;65462;52.148;7.940;2023-06-14T07:14:21;1.85;;;1.10;;
76582;SDS011;65462;52.148;7.940;2023-06-14T07:16:48;1.63;;;1.00;;
76582;SDS011;65462;52.148;7.940;2023-06-14T07:19:14;2.28;;;1.00;;
76582;SDS011;65462;52.148;7.940;2023-06-14T07:21:39;1.65;;;1.00;;
76582;SDS011;65462;52.148;7.940;2023-06-14T07:24:05;1.63;;;0.90;;
76582;SDS011;65462;52.148;7.940;2023-06-14T07:26:31;1.52;;;0.90;;
76582;SDS011;65462;52.148;7.940;2023-06-14T07:28:56;1.38;;;0.90;;
76582;SDS011;65462;52.148;7.940;2023-06-14T07:31:22;1.70;;;1.15;;
76582;SDS011;65462;52.148;7.940;2023-06-14T07:33:47;2.22;;;1.02;;
76582;SDS011;65462;52.148;7.940;2023-06-14T07:36:12;2.00;;;0.90;;
76582;SDS011;65462;52.148;7.940;2023-06-14T07:38:37;2.45;;;1.45;;
76582;SDS011;65462;52.148;7.940;2023-06-14T07:41:05;1.98;;;1.08;;
76582;SDS011;65462;52.148;7.940;2023-06-14T07:43:30;1.73;;;1.10;;
76582;SDS011;65462;52.148;7.940;2023-06-14T07:45:56;2.03;;;1.00;;
76582;SDS011;65462;52.148;7.940;2023-06-14T07:48:22;1.60;;;0.90;;
76582;SDS011;65462;52.148;7.940;2023-06-14T07:50:47;2.15;;;1.02;;
76582;SDS011;65462;52.148;7.940;2023-06-14T07:53:13;1.63;;;0.82;;
76582;SDS011;65462;52.148;7.940;2023-06-14T07:55:38;2.42;;;1.00;;
76582;SDS011;65462;52.148;7.940;2023-06-14T07:58:06;2.55;;;1.00;;
76582;SDS011;65462;52.148;7.940;2023-06-14T08:00:32;3.28;;;1.30;;
76582;SDS011;65462;52.148;7.940;2023-06-14T08:02:57;1.70;;;1.02;;
76582;SDS011;65462;52.148;7.940;2023-06-14T08:05:24;2.67;;;1.13;;
76582;SDS011;65462;52.148;7.940;2023-06-14T08:07:53;0.82;;;0.80;;
76582;SDS011;65462;52.148;7.940;2023-06-14T08:10:19;1.92;;;1.10;;
76582;SDS011;65462;52.148;7.940;2023-06-14T08:12:45;2.78;;;1.40;;
76582;SDS011;65462;52.148;7.940;2023-06-14T08:15:10;2.70;;;1.10;;
76582;SDS011;65462;52.148;7.940;2023-06-14T08:17:36;3.28;;;1.17;;
76582;SDS011;65462;52.148;7.940;2023-06-14T08:20:02;1.52;;;1.00;;
76582;SDS011;65462;52.148;7.940;2023-06-14T08:22:29;2.70;;;1.15;;
76582;SDS011;65462;52.148;7.940;2023-06-14T08:24:58;1.65;;;1.23;;
76582;SDS011;65462;52.148;7.940;2023-06-14T08:27:24;3.58;;;1.20;;
76582;SDS011;65462;52.148;7.940;2023-06-14T08:29:49;2.60;;;1.02;;
76582;SDS011;65462;52.148;7.940;2023-06-14T08:32:15;2.30;;;1.10;;
76582;SDS011;65462;52.148;7.940;2023-06-14T08:34:40;1.13;;;0.95;;
76582;SDS011;65462;52.148;7.940;2023-06-14T08:37:05;1.25;;;0.88;;
76582;SDS011;65462;52.148;7.940;2023-06-14T08:39:31;1.67;;;1.00;;
76582;SDS011;65462;52.148;7.940;2023-06-14T08:41:57;2.45;;;0.80;;
76582;SDS011;65462;52.148;7.940;2023-06-14T08:44:23;1.27;;;0.88;;
76582;SDS011;65462;52.148;7.940;2023-06-14T08:46:48;1.45;;;1.00;;
76582;SDS011;65462;52.148;7.940;2023-06-14T08:49:15;2.10;;;0.82;;
76582;SDS011;65462;52.148;7.940;2023-06-14T08:51:41;1.73;;;0.82;;
76582;SDS011;65462;52.148;7.940;2023-06-14T08:54:08;1.85;;;1.00;;
76582;SDS011;65462;52.148;7.940;2023-06-14T08:56:35;2.47;;;0.90;;
76582;SDS011;65462;52.148;7.940;2023-06-14T08:59:02;2.67;;;1.00;;
76582;SDS011;65462;52.148;7.940;2023-06-14T09:01:30;2.42;;;1.08;;
76582;SDS011;65462;52.148;7.940;2023-06-14T09:03:59;1.33;;;0.80;;
76582;SDS011;65462;52.148;7.940;2023-06-14T09:06:24;2.15;;;1.10;;
76582;SDS011;65462;52.148;7.940;2023-06-14T09:08:50;1.75;;;0.93;;
76582;SDS011;65462;52.148;7.940;2023-06-14T09:11:16;2.22;;;1.00;;
76582;SDS011;65462;52.148;7.940;2023-06-14T09:13:44;3.17;;;1.10;;
76582;SDS011;65462;52.148;7.940;2023-06-14T09:16:10;1.83;;;0.90;;
76582;SDS011;65462;52.148;7.940;2023-06-14T09:18:37;2.95;;;1.05;;
76582;SDS011;65462;52.148;7.940;2023-06-14T09:21:05;2.38;;;1.00;;
76582;SDS011;65462;52.148;7.940;2023-06-14T09:23:33;1.35;;;0.93;;
76582;SDS011;65462;52.148;7.940;2023-06-14T09:26:05;1.42;;;0.60;;
76582;SDS011;65462;52.148;7.940;2023-06-14T09:28:35;1.38;;;0.63;;
76582;SDS011;65462;52.148;7.940;2023-06-14T09:31:00;2.28;;;0.88;;
76582;SDS011;65462;52.148;7.940;2023-06-14T09:33:26;0.68;;;0.65;;
76582;SDS011;65462;52.148;7.940;2023-06-14T09:35:52;2.55;;;0.70;;
76582;SDS011;65462;52.148;7.940;2023-06-14T09:38:19;1.08;;;0.55;;
76582;SDS011;65462;52.148;7.940;2023-06-14T09:40:45;1.15;;;0.70;;
76582;SDS011;65462;52.148;7.940;2023-06-14T09:43:10;1.27;;;0.90;;
76582;SDS011;65462;52.148;7.940;2023-06-14T09:45:37;0.93;;;0.80;;
76582;SDS011;65462;52.148;7.940;2023-06-14T09:48:05;1.10;;;0.80;;
76582;SDS011;65462;52.148;7.940;2023-06-14T09:50:32;2.13;;;0.82;;
76582;SDS011;65462;52.148;7.940;2023-06-14T09:53:00;1.30;;;0.80;;
76582;SDS011;65462;52.148;7.940;2023-06-14T09:55:28;1.65;;;1.00;;
76582;SDS011;65462;52.148;7.940;2023-06-14T09:57:55;2.83;;;0.85;;
76582;SDS011;65462;52.148;7.940;2023-06-14T10:00:22;1.80;;;0.95;;
76582;SDS011;65462;52.148;7.940;2023-06-14T10:02:49;3.05;;;0.90;;
76582;SDS011;65462;52.148;7.940;2023-06-14T10:05:23;2.30;;;1.00;;
76582;SDS011;65462;52.148;7.940;2023-06-14T10:07:52;1.92;;;1.17;;
76582;SDS011;65462;52.148;7.940;2023-06-14T10:10:32;1.80;;;0.90;;
76582;SDS011;65462;52.148;7.940;2023-06-14T10:12:58;2.45;;;1.20;;
76582;SDS011;65462;52.148;7.940;2023-06-14T10:15:28;3.88;;;1.00;;
76582;SDS011;65462;52.148;7.940;2023-06-14T10:18:20;1.10;;;0.88;;
76582;SDS011;65462;52.148;7.940;2023-06-14T10:23:59;2.05;;;0.98;;
76582;SDS011;65462;52.148;7.940;2023-06-14T10:26:28;1.20;;;0.80;;
76582;SDS011;65462;52.148;7.940;2023-06-14T10:28:57;1.63;;;0.90;;
76582;SDS011;65462;52.148;7.940;2023-06-14T10:31:39;2.95;;;0.90;;
76582;SDS011;65462;52.148;7.940;2023-06-14T10:34:09;2.42;;;0.90;;
76582;SDS011;65462;52.148;7.940;2023-06-14T10:36:34;1.70;;;0.90;;
76582;SDS011;65462;52.148;7.940;2023-06-14T10:39:07;2.08;;;1.10;;
76582;SDS011;65462;52.148;7.940;2023-06-14T10:41:41;1.45;;;0.98;;
76582;SDS011;65462;52.148;7.940;2023-06-14T10:46:37;5.43;;;0.80;;
76582;SDS011;65462;52.148;7.940;2023-06-14T10:49:03;1.48;;;1.00;;
76582;SDS011;65462;52.148;7.940;2023-06-14T10:51:38;2.10;;;1.00;;
76582;SDS011;65462;52.148;7.940;2023-06-14T10:54:12;1.65;;;0.90;;
76582;SDS011;65462;52.148;7.940;2023-06-14T10:56:47;1.15;;;0.70;;
76582;SDS011;65462;52.148;7.940;2023-06-14T10:59:14;2.58;;;1.02;;
76582;SDS011;65462;52.148;7.940;2023-06-14T11:04:52;1.20;;;0.95;;
76582;SDS011;65462;52.148;7.940;2023-06-14T11:12:44;1.70;;;0.95;;
76582;SDS011;65462;52.148;7.940;2023-06-14T11:15:13;1.08;;;0.70;;
76582;SDS011;65462;52.148;7.940;2023-06-14T11:17:38;1.83;;;1.10;;
76582;SDS011;65462;52.148;7.940;2023-06-14T11:20:07;1.65;;;0.80;;
76582;SDS011;65462;52.148;7.940;2023-06-14T11:22:41;1.63;;;1.00;;
76582;SDS011;65462;52.148;7.940;2023-06-14T11:25:10;1.98;;;0.93;;
76582;SDS011;65462;52.148;7.940;2023-06-14T11:27:36;1.52;;;0.90;;
76582;SDS011;65462;52.148;7.940;2023-06-14T11:30:02;1.33;;;0.80;;
76582;SDS011;65462;52.148;7.940;2023-06-14T11:32:27;1.65;;;1.00;;
76582;SDS011;65462;52.148;7.940;2023-06-14T11:34:53;1.45;;;1.00;;
76582;SDS011;65462;52.148;7.940;2023-06-14T11:37:18;1.33;;;1.00;;
76582;SDS011;65462;52.148;7.940;2023-06-14T11:39:44;2.25;;;0.98;;
76582;SDS011;65462;52.148;7.940;2023-06-14T11:42:13;1.77;;;1.08;;
76582;SDS011;65462;52.148;7.940;2023-06-14T11:44:41;1.92;;;1.10;;
76582;SDS011;65462;52.148;7.940;2023-06-14T11:47:06;1.13;;;0.90;;
76582;SDS011;65462;52.148;7.940;2023-06-14T11:49:35;1.65;;;0.93;;
76582;SDS011;65462;52.148;7.940;2023-06-14T11:52:01;2.08;;;0.82;;
76582;SDS011;65462;52.148;7.940;2023-06-14T11:54:26;1.48;;;1.08;;
76582;SDS011;65462;52.148;7.940;2023-06-14T11:56:52;1.20;;;0.90;;
76582;SDS011;65462;52.148;7.940;2023-06-14T11:59:17;1.50;;;0.85;;
76582;SDS011;65462;52.148;7.940;2023-06-14T12:01:42;1.80;;;1.15;;
76582;SDS011;65462;52.148;7.940;2023-06-14T12:04:08;2.17;;;1.00;;
76582;SDS011;65462;52.148;7.940;2023-06-14T12:06:33;4.47;;;0.93;;
76582;SDS011;65462;52.148;7.940;2023-06-14T12:09:04;1.42;;;1.00;;
76582;SDS011;65462;52.148;7.940;2023-06-14T12:11:32;2.67;;;1.02;;
76582;SDS011;65462;52.148;7.940;2023-06-14T12:13:59;1.83;;;1.00;;
76582;SDS011;65462;52.148;7.940;2023-06-14T12:16:29;2.25;;;1.20;;
76582;SDS011;65462;52.148;7.940;2023-06-14T12:18:56;2.40;;;0.80;;
76582;SDS011;65462;52.148;7.940;2023-06-14T12:21:25;2.28;;;1.00;;
76582;SDS011;65462;52.148;7.940;2023-06-14T12:23:53;1.70;;;1.00;;
76582;SDS011;65462;52.148;7.940;2023-06-14T12:26:19;1.75;;;0.95;;
76582;SDS011;65462;52.148;7.940;2023-06-14T12:28:45;1.83;;;1.15;;
76582;SDS011;65462;52.148;7.940;2023-06-14T12:31:12;0.98;;;0.75;;
76582;SDS011;65462;52.148;7.940;2023-06-14T12:33:39;1.42;;;0.80;;
76582;SDS011;65462;52.148;7.940;2023-06-14T12:36:09;1.27;;;1.10;;
76582;SDS011;65462;52.148;7.940;2023-06-14T12:38:35;2.50;;;1.13;;
76582;SDS011;65462;52.148;7.940;2023-06-14T12:41:01;3.38;;;1.10;;
76582;SDS011;65462;52.148;7.940;2023-06-14T12:43:26;2.53;;;1.00;;
76582;SDS011;65462;52.148;7.940;2023-06-14T12:45:52;2.15;;;0.88;;
76582;SDS011;65462;52.148;7.940;2023-06-14T12:48:17;3.70;;;0.90;;
76582;SDS011;65462;52.148;7.940;2023-06-14T12:50:43;1.33;;;0.82;;
76582;SDS011;65462;52.148;7.940;2023-06-14T12:53:08;1.50;;;0.90;;
76582;SDS011;65462;52.148;7.940;2023-06-14T12:55:33;1.95;;;1.10;;
76582;SDS011;65462;52.148;7.940;2023-06-14T12:57:59;1.23;;;0.98;;
76582;SDS011;65462;52.148;7.940;2023-06-14T13:00:24;0.90;;;0.80;;
76582;SDS011;65462;52.148;7.940;2023-06-14T13:02:51;1.13;;;0.77;;
76582;SDS011;65462;52.148;7.940;2023-06-14T13:05:16;1.20;;;0.80;;
76582;SDS011;65462;52.148;7.940;2023-06-14T13:07:42;2.17;;;0.90;;
76582;SDS011;65462;52.148;7.940;2023-06-14T13:10:07;1.60;;;0.90;;
76582;SDS011;65462;52.148;7.940;2023-06-14T13:12:33;1.90;;;0.90;;
76582;SDS011;65462;52.148;7.940;2023-06-14T13:14:58;1.98;;;1.00;;
76582;SDS011;65462;52.148;7.940;2023-06-14T13:17:23;1.40;;;1.00;;
76582;SDS011;65462;52.148;7.940;2023-06-14T13:19:48;2.33;;;0.98;;
76582;SDS011;65462;52.148;7.940;2023-06-14T13:22:14;2.35;;;0.82;;
76582;SDS011;65462;52.148;7.940;2023-06-14T13:24:39;1.13;;;0.90;;
76582;SDS011;65462;52.148;7.940;2023-06-14T13:27:04;4.32;;;1.15;;
76582;SDS011;65462;52.148;7.940;2023-06-14T13:29:30;3.35;;;1.02;;
76582;SDS011;65462;52.148;7.940;2023-06-14T13:31:56;3.13;;;1.30;;
76582;SDS011;65462;52.148;7.940;2023-06-14T13:34:21;3.40;;;1.10;;
76582;SDS011;65462;52.148;7.940;2023-06-14T13:36:48;1.35;;;1.10;;
76582;SDS011;65462;52.148;7.940;2023-06-14T13:39:14;2.10;;;0.90;;
76582;SDS011;65462;52.148;7.940;2023-06-14T13:41:40;1.38;;;1.02;;
76582;SDS011;65462;52.148;7.940;2023-06-14T13:44:05;1.85;;;0.98;;
76582;SDS011;65462;52.148;7.940;2023-06-14T13:46:30;1.20;;;1.10;;
76582;SDS011;65462;52.148;7.940;2023-06-14T13:48:56;2.05;;;0.90;;
76582;SDS011;65462;52.148;7.940;2023-06-14T13:51:23;2.05;;;1.02;;
76582;SDS011;65462;52.148;7.940;2023-06-14T13:53:48;1.73;;;1.10;;
76582;SDS011;65462;52.148;7.940;2023-06-14T13:56:14;0.98;;;0.90;;
76582;SDS011;65462;52.148;7.940;2023-06-14T13:58:39;1.30;;;1.00;;
76582;SDS011;65462;52.148;7.940;2023-06-14T14:01:05;1.95;;;1.00;;
76582;SDS011;65462;52.148;7.940;2023-06-14T14:03:30;2.03;;;1.10;;
76582;SDS011;65462;52.148;7.940;2023-06-14T14:05:55;3.03;;;1.00;;
76582;SDS011;65462;52.148;7.940;2023-06-14T14:08:21;2.20;;;1.10;;
76582;SDS011;65462;52.148;7.940;2023-06-14T14:10:46;1.80;;;0.90;;
76582;SDS011;65462;52.148;7.940;2023-06-14T14:13:12;1.40;;;1.30;;
76582;SDS011;65462;52.148;7.940;2023-06-14T14:15:37;1.75;;;1.05;;
76582;SDS011;65462;52.148;7.940;2023-06-14T14:18:03;2.10;;;1.00;;
76582;SDS011;65462;52.148;7.940;2023-06-14T14:20:29;1.35;;;0.90;;
76582;SDS011;65462;52.148;7.940;2023-06-14T14:22:55;3.30;;;1.10;;
76582;SDS011;65462;52.148;7.940;2023-06-14T14:25:21;1.65;;;0.90;;
76582;SDS011;65462;52.148;7.940;2023-06-14T14:27:46;1.42;;;0.80;;
76582;SDS011;65462;52.148;7.940;2023-06-14T14:30:12;1.98;;;0.82;;
76582;SDS011;65462;52.148;7.940;2023-06-14T14:32:39;1.30;;;1.08;;
76582;SDS011;65462;52.148;7.940;2023-06-14T14:35:04;1.23;;;0.90;;
76582;SDS011;65462;52.148;7.940;2023-06-14T14:37:30;1.67;;;1.02;;
76582;SDS011;65462;52.148;7.940;2023-06-14T14:39:55;1.67;;;0.90;;
76582;SDS011;65462;52.148;7.940;2023-06-14T14:42:20;1.70;;;1.30;;
76582;SDS011;65462;52.148;7.940;2023-06-14T14:44:45;1.65;;;1.00;;
76582;SDS011;65462;52.148;7.940;2023-06-14T14:47:11;1.25;;;0.93;;
76582;SDS011;65462;52.148;7.940;2023-06-14T14:49:36;1.77;;;1.20;;
76582;SDS011;65462;52.148;7.940;2023-06-14T14:52:01;1.13;;;0.95;;
76582;SDS011;65462;52.148;7.940;2023-06-14T14:54:27;1.10;;;1.00;;
76582;SDS011;65462;52.148;7.940;2023-06-14T14:56:54;1.17;;;0.93;;